Time;durP1;ratioP1;P1;durP2;ratioP2;P2;SDS_P1;SDS_P2;PMS_P1;PMS_P2;Temp;Humidity;BMP_temperature;BMP_pressure;BME280_temperature;BME280_humidity;BME280_pressure;Samples;Min_cycle;Max_cycle;Signal;HPM_P1;HPM_P2
2021/12/21 00:01:33;;;;;;;23.25;10.15;;;-1.00;99.90;;;;;;5113323;28;20276;-59
2021/12/21 00:03:59;;;;;;;26.00;10.07;;;-1.00;99.90;;;;;;5112872;28;20035;-59
2021/12/21 00:06:25;;;;;;;23.45;10.48;;;-1.00;99.90;;;;;;5112637;28;20039;-59
2021/12/21 00:08:50;;;;;;;21.35;10.25;;;-1.00;99.90;;;;;;5112608;28;20567;-59
2021/12/21 00:11:16;;;;;;;24.13;10.93;;;-1.00;99.90;;;;;;5112535;28;20049;-60
2021/12/21 00:13:57;;;;;;;22.20;11.07;;;-1.00;99.90;;;;;;5093783;28;20108;-59
2021/12/21 00:19:37;;;;;;;18.70;11.07;;;-1.00;99.90;;;;;;5112822;28;20035;-59
2021/12/21 00:21:41;;;;;;;22.83;11.00;;;-1.00;99.90;;;;;;5111617;28;20129;-58
2021/12/21 00:24:19;;;;;;;22.38;10.32;;;-1.10;99.90;;;;;;5093341;28;20043;-58
2021/12/21 00:26:45;;;;;;;20.23;11.02;;;-1.10;99.90;;;;;;5112573;28;20114;-59
2021/12/21 00:29:11;;;;;;;20.27;10.68;;;-1.10;99.90;;;;;;5112148;28;20138;-58
2021/12/21 00:31:37;;;;;;;22.08;10.30;;;-1.10;99.90;;;;;;5111809;28;20043;-59
2021/12/21 00:34:06;;;;;;;22.80;10.82;;;-1.10;99.90;;;;;;5112060;28;20036;-59
2021/12/21 00:36:35;;;;;;;20.50;10.95;;;-1.10;99.90;;;;;;5111671;28;20131;-60
2021/12/21 00:39:06;;;;;;;21.60;10.75;;;-1.10;99.90;;;;;;5111799;28;20055;-59
2021/12/21 00:41:32;;;;;;;19.20;10.45;;;-1.10;99.90;;;;;;5092993;28;20040;-60
2021/12/21 00:43:58;;;;;;;23.98;11.80;;;-1.20;99.90;;;;;;5089401;28;20039;-60
2021/12/21 00:46:24;;;;;;;20.00;10.82;;;-1.20;99.90;;;;;;5104815;28;20036;-59
2021/12/21 00:48:55;;;;;;;23.90;10.85;;;-1.20;99.90;;;;;;5098093;28;20054;-60
2021/12/21 00:51:24;;;;;;;20.55;10.57;;;-1.30;99.90;;;;;;5092609;28;20263;-61
2021/12/21 00:53:50;;;;;;;21.95;11.15;;;-1.30;99.90;;;;;;5098345;28;20062;-61
2021/12/21 00:56:16;;;;;;;22.63;10.68;;;-1.20;99.90;;;;;;5110455;28;20367;-61
2021/12/21 00:58:42;;;;;;;21.90;10.82;;;-1.30;99.90;;;;;;5111573;28;20081;-60
2021/12/21 01:01:08;;;;;;;18.25;10.50;;;-1.30;99.90;;;;;;5111304;28;20074;-59
2021/12/21 01:03:36;;;;;;;20.02;10.82;;;-1.40;99.90;;;;;;5111191;28;20068;-59
2021/12/21 01:06:27;;;;;;;21.70;11.57;;;-1.40;99.90;;;;;;5111285;28;20043;-60
2021/12/21 01:11:40;;;;;;;20.75;10.48;;;-1.50;99.90;;;;;;5073999;28;20488;-61
2021/12/21 01:14:38;;;;;;;24.02;9.98;;;-1.50;99.90;;;;;;5078419;28;20040;-63
2021/12/21 01:19:51;;;;;;;22.88;10.20;;;-1.60;99.90;;;;;;5110584;28;20031;-60
2021/12/21 01:22:24;;;;;;;23.23;10.55;;;-1.60;99.90;;;;;;5111031;28;20036;-60
2021/12/21 01:27:55;;;;;;;18.73;10.60;;;-1.60;99.90;;;;;;5111268;28;20085;-59
2021/12/21 01:33:04;;;;;;;20.15;10.63;;;-1.60;99.90;;;;;;5111692;28;20048;-60
2021/12/21 01:38:49;;;;;;;19.90;9.48;;;-1.70;99.90;;;;;;5111272;28;20122;-59
2021/12/21 01:43:20;;;;;;;17.83;9.90;;;-1.70;99.90;;;;;;5111215;28;20490;-59
2021/12/21 01:51:17;;;;;;;19.13;9.38;;;-1.70;99.90;;;;;;5111370;28;20386;-61
2021/12/21 01:53:44;;;;;;;23.98;9.93;;;-1.70;99.90;;;;;;5111055;28;20035;-58
2021/12/21 01:56:10;;;;;;;20.73;10.07;;;-1.70;99.90;;;;;;5111040;28;20119;-59
2021/12/21 01:58:39;;;;;;;24.15;10.38;;;-1.70;99.90;;;;;;5092468;28;20047;-58
2021/12/21 02:01:10;;;;;;;22.67;10.18;;;-1.70;99.90;;;;;;5109680;28;20039;-58
2021/12/21 02:03:36;;;;;;;22.55;10.23;;;-1.70;99.90;;;;;;5110024;28;20036;-58
2021/12/21 02:06:03;;;;;;;23.98;10.50;;;-1.70;99.90;;;;;;5090843;28;20054;-58
2021/12/21 02:08:29;;;;;;;21.00;10.10;;;-1.70;99.90;;;;;;5111079;28;20471;-57
2021/12/21 02:11:00;;;;;;;22.98;9.82;;;-1.70;99.90;;;;;;5110757;28;20045;-60
2021/12/21 02:13:32;;;;;;;21.13;9.38;;;-1.70;99.90;;;;;;5111126;28;20406;-61
2021/12/21 02:15:58;;;;;;;19.27;9.02;;;-1.70;99.90;;;;;;5111048;28;20031;-59
2021/12/21 02:21:01;;;;;;;21.75;10.27;;;-1.80;99.90;;;;;;5090461;28;20044;-61
2021/12/21 02:23:34;;;;;;;26.27;10.95;;;-1.70;99.90;;;;;;5092883;28;20056;-60
2021/12/21 02:29:10;;;;;;;20.33;10.27;;;-1.70;99.90;;;;;;5069900;28;20039;-61
2021/12/21 02:31:37;;;;;;;22.60;9.88;;;-1.70;99.90;;;;;;5091816;28;20054;-59
2021/12/21 02:34:04;;;;;;;20.98;10.65;;;-1.70;99.90;;;;;;5089994;28;20098;-60
2021/12/21 02:36:30;;;;;;;19.50;9.40;;;-1.70;99.90;;;;;;5076695;28;20063;-61
2021/12/21 02:38:55;;;;;;;20.55;10.27;;;-1.70;99.90;;;;;;5073142;28;20032;-59
2021/12/21 02:41:21;;;;;;;20.63;10.80;;;-1.70;99.90;;;;;;5074119;28;20036;-60
2021/12/21 02:43:47;;;;;;;18.55;10.38;;;-1.70;99.90;;;;;;5051843;28;20082;-60
2021/12/21 02:46:12;;;;;;;21.58;10.57;;;-1.70;99.90;;;;;;5070033;28;20860;-60
2021/12/21 02:48:39;;;;;;;21.90;10.98;;;-1.70;99.90;;;;;;5069660;28;20036;-59
2021/12/21 02:51:04;;;;;;;20.35;9.73;;;-1.70;99.90;;;;;;5076199;28;20040;-60
2021/12/21 02:53:30;;;;;;;22.23;10.00;;;-1.70;99.90;;;;;;5073159;28;20109;-58
2021/12/21 02:55:56;;;;;;;20.13;9.85;;;-1.70;99.90;;;;;;5072746;28;20506;-58
2021/12/21 02:58:22;;;;;;;19.00;10.57;;;-1.70;99.90;;;;;;5055568;28;20063;-59
2021/12/21 03:00:48;;;;;;;22.52;9.95;;;-1.80;99.90;;;;;;5075050;28;20160;-57
2021/12/21 03:03:15;;;;;;;23.20;10.25;;;-1.80;99.90;;;;;;5074808;28;20067;-59
2021/12/21 03:05:49;;;;;;;20.55;9.30;;;-1.80;99.90;;;;;;5075927;28;20078;-59
2021/12/21 03:08:22;;;;;;;18.88;9.73;;;-1.90;99.90;;;;;;5056938;28;20055;-60
2021/12/21 03:11:16;;;;;;;21.35;10.07;;;-1.90;99.90;;;;;;5069864;28;20815;-58
2021/12/21 03:16:19;;;;;;;22.35;10.18;;;-1.90;99.90;;;;;;5086514;28;20124;-59
2021/12/21 03:18:45;;;;;;;18.88;9.70;;;-2.00;99.90;;;;;;5071689;28;20059;-58
2021/12/21 03:21:11;;;;;;;20.50;9.77;;;-2.00;99.90;;;;;;5073413;28;20041;-60
2021/12/21 03:23:38;;;;;;;19.33;10.23;;;-2.00;99.90;;;;;;5073433;28;20028;-58
2021/12/21 03:26:04;;;;;;;20.15;9.88;;;-2.00;99.90;;;;;;5089597;28;20467;-59
2021/12/21 03:28:30;;;;;;;18.88;9.82;;;-2.00;99.90;;;;;;5091856;28;20479;-60
2021/12/21 03:30:56;;;;;;;22.20;10.38;;;-2.00;99.90;;;;;;5088981;28;20048;-58
2021/12/21 03:33:22;;;;;;;18.10;9.63;;;-2.10;99.90;;;;;;5073327;28;20973;-59
2021/12/21 03:35:48;;;;;;;19.20;9.82;;;-2.10;99.90;;;;;;5071751;28;20134;-60
2021/12/21 03:38:15;;;;;;;19.95;10.75;;;-2.10;99.90;;;;;;5074059;28;20040;-58
2021/12/21 03:40:41;;;;;;;18.25;9.93;;;-2.10;99.90;;;;;;5055190;28;20037;-59
2021/12/21 03:43:06;;;;;;;18.63;9.57;;;-2.10;99.90;;;;;;5072332;28;20510;-59
2021/12/21 03:45:37;;;;;;;17.83;9.63;;;-2.10;99.90;;;;;;5053820;28;20045;-60
2021/12/21 03:48:03;;;;;;;18.63;9.32;;;-2.10;99.90;;;;;;5071899;28;20044;-61
2021/12/21 03:50:28;;;;;;;17.63;10.00;;;-2.10;99.90;;;;;;5073049;28;20058;-59
2021/12/21 03:52:54;;;;;;;23.45;10.63;;;-2.10;99.90;;;;;;5072046;28;20624;-59
2021/12/21 03:55:20;;;;;;;19.40;10.00;;;-2.10;99.90;;;;;;5072007;28;20037;-59
2021/12/21 03:57:46;;;;;;;20.08;10.05;;;-2.10;99.90;;;;;;5072719;28;20417;-60
2021/12/21 04:00:15;;;;;;;17.75;9.52;;;-2.10;99.90;;;;;;5071842;28;20085;-60
2021/12/21 04:02:41;;;;;;;22.50;9.48;;;-2.10;99.90;;;;;;5072652;28;20040;-60
2021/12/21 04:05:07;;;;;;;18.23;9.80;;;-2.10;99.90;;;;;;5060052;28;20037;-60
2021/12/21 04:07:33;;;;;;;18.25;10.20;;;-2.20;99.90;;;;;;5071630;28;20056;-59
2021/12/21 04:09:59;;;;;;;16.08;9.25;;;-2.20;99.90;;;;;;5073293;28;20033;-60
2021/12/21 04:12:25;;;;;;;19.25;9.70;;;-2.20;99.90;;;;;;5054224;28;20098;-58
2021/12/21 04:14:52;;;;;;;21.63;9.90;;;-2.20;99.90;;;;;;5055705;28;20419;-58
2021/12/21 04:17:22;;;;;;;19.50;9.45;;;-2.20;99.90;;;;;;5072177;28;20411;-58
2021/12/21 04:19:49;;;;;;;20.17;10.38;;;-2.20;99.90;;;;;;5076978;28;20508;-59
2021/12/21 04:22:16;;;;;;;20.23;10.15;;;-2.20;99.90;;;;;;5073554;28;20102;-58
2021/12/21 04:24:42;;;;;;;18.42;10.55;;;-2.20;99.90;;;;;;5052907;28;20036;-60
2021/12/21 04:27:08;;;;;;;19.95;9.75;;;-2.20;99.90;;;;;;5071742;28;20067;-58
2021/12/21 04:29:34;;;;;;;17.33;8.90;;;-2.20;99.90;;;;;;5070991;28;20059;-59
2021/12/21 04:32:00;;;;;;;20.00;10.10;;;-2.20;99.90;;;;;;5072796;28;20036;-60
2021/12/21 04:34:25;;;;;;;19.70;9.82;;;-2.20;99.90;;;;;;5070874;28;20040;-60
2021/12/21 04:36:51;;;;;;;19.27;9.77;;;-2.20;99.90;;;;;;5081203;28;21287;-60
2021/12/21 04:39:31;;;;;;;21.42;10.00;;;-2.20;99.90;;;;;;5071672;28;20040;-59
2021/12/21 04:41:57;;;;;;;17.48;9.15;;;-2.30;99.90;;;;;;5083389;28;20047;-61
2021/12/21 04:44:23;;;;;;;20.23;9.75;;;-2.30;99.90;;;;;;5075235;28;20399;-60
2021/12/21 04:46:48;;;;;;;20.85;9.68;;;-2.30;99.90;;;;;;5072277;28;20052;-59
2021/12/21 04:49:14;;;;;;;19.35;9.93;;;-2.30;99.90;;;;;;5082755;28;20495;-60
2021/12/21 04:51:40;;;;;;;19.77;9.93;;;-2.30;99.90;;;;;;5071172;28;20497;-61
2021/12/21 04:54:05;;;;;;;23.40;10.75;;;-2.30;99.90;;;;;;5053260;28;20055;-61
2021/12/21 04:56:31;;;;;;;24.88;10.50;;;-2.30;99.90;;;;;;5070880;28;20044;-58
2021/12/21 04:58:57;;;;;;;23.77;10.57;;;-2.30;99.90;;;;;;5071256;28;20044;-58
2021/12/21 05:01:22;;;;;;;18.88;10.23;;;-2.30;99.90;;;;;;5073226;28;20036;-60
2021/12/21 05:03:48;;;;;;;27.90;9.93;;;-2.30;99.90;;;;;;5071435;28;20032;-60
2021/12/21 05:06:15;;;;;;;19.67;9.63;;;-2.30;99.90;;;;;;5052925;28;20079;-60
2021/12/21 05:08:41;;;;;;;20.55;10.10;;;-2.30;99.90;;;;;;5071209;28;20041;-61
2021/12/21 05:11:08;;;;;;;21.48;10.20;;;-2.30;99.90;;;;;;5072890;28;20399;-59
2021/12/21 05:13:36;;;;;;;21.60;9.63;;;-2.30;99.90;;;;;;5070030;28;20051;-60
2021/12/21 05:16:02;;;;;;;23.05;10.98;;;-2.30;99.90;;;;;;5070675;28;20032;-59
2021/12/21 05:18:28;;;;;;;16.92;9.60;;;-2.30;99.90;;;;;;5071581;28;20032;-61
2021/12/21 05:20:54;;;;;;;20.52;9.93;;;-2.30;99.90;;;;;;5071033;28;20067;-58
2021/12/21 05:23:20;;;;;;;21.85;9.48;;;-2.40;99.90;;;;;;5075261;28;20028;-59
2021/12/21 05:25:46;;;;;;;18.88;9.38;;;-2.40;99.90;;;;;;5070040;28;20025;-59
2021/12/21 05:28:13;;;;;;;19.65;8.55;;;-2.40;99.90;;;;;;5070737;28;20050;-59
2021/12/21 05:30:40;;;;;;;15.50;8.15;;;-2.50;99.90;;;;;;5068917;28;20039;-59
2021/12/21 05:33:06;;;;;;;20.25;8.85;;;-2.60;99.90;;;;;;5070826;28;20051;-58
2021/12/21 05:35:34;;;;;;;19.50;9.00;;;-2.60;99.90;;;;;;5074024;28;20060;-60
2021/12/21 05:38:03;;;;;;;17.88;9.60;;;-2.60;99.90;;;;;;5052813;28;20454;-59
2021/12/21 05:40:37;;;;;;;19.00;9.80;;;-2.60;99.90;;;;;;5089655;28;20040;-60
2021/12/21 05:43:03;;;;;;;21.50;9.82;;;-2.60;99.90;;;;;;5073178;28;20047;-62
2021/12/21 05:45:29;;;;;;;21.42;10.18;;;-2.60;99.90;;;;;;5070615;28;20123;-59
2021/12/21 05:47:55;;;;;;;21.30;9.82;;;-2.50;99.90;;;;;;5070723;28;20116;-61
2021/12/21 05:50:21;;;;;;;19.40;9.98;;;-2.50;99.90;;;;;;5072371;28;20040;-59
2021/12/21 05:52:48;;;;;;;19.75;9.95;;;-2.60;99.90;;;;;;5072215;28;20041;-60
2021/12/21 05:55:15;;;;;;;20.90;10.25;;;-2.50;99.90;;;;;;5070312;28;20032;-59
2021/12/21 05:57:41;;;;;;;19.95;10.68;;;-2.50;99.90;;;;;;5052758;28;20139;-59
2021/12/21 06:00:13;;;;;;;20.45;9.65;;;-2.60;99.90;;;;;;5069426;28;20033;-60
2021/12/21 06:02:39;;;;;;;20.85;10.02;;;-2.60;99.90;;;;;;5070349;28;20388;-59
2021/12/21 06:05:06;;;;;;;18.77;10.35;;;-2.70;99.90;;;;;;5073373;28;20410;-60
2021/12/21 06:07:33;;;;;;;21.13;10.23;;;-2.70;99.90;;;;;;5090254;28;20534;-60
2021/12/21 06:10:07;;;;;;;21.40;10.45;;;-2.70;99.90;;;;;;5085632;28;20105;-59
2021/12/21 06:25:55;;;;;;;16.70;10.27;;;-2.70;99.90;;;;;;5081696;28;19933;-59
2021/12/21 06:28:21;;;;;;;17.45;10.10;;;-2.70;99.90;;;;;;5074090;28;20040;-56
2021/12/21 06:30:47;;;;;;;22.77;10.45;;;-2.70;99.90;;;;;;5054684;28;20033;-60
2021/12/21 06:33:14;;;;;;;21.77;10.15;;;-2.70;99.90;;;;;;5087183;28;20054;-58
2021/12/21 06:35:40;;;;;;;19.48;9.77;;;-2.80;99.90;;;;;;5083815;28;20399;-60
2021/12/21 06:38:06;;;;;;;17.30;10.02;;;-2.80;99.90;;;;;;5079751;28;20045;-59
2021/12/21 06:40:33;;;;;;;17.05;9.70;;;-2.80;99.90;;;;;;5092727;28;20036;-61
2021/12/21 06:43:02;;;;;;;22.00;10.30;;;-2.80;99.90;;;;;;5082739;28;20039;-59
2021/12/21 06:45:44;;;;;;;22.08;10.35;;;-2.80;99.90;;;;;;5073185;28;20365;-59
2021/12/21 06:51:15;;;;;;;19.40;10.50;;;-2.90;99.90;;;;;;5079512;28;20087;-59
2021/12/21 06:53:43;;;;;;;17.27;9.35;;;-2.90;99.90;;;;;;5076548;28;20074;-61
2021/12/21 06:56:09;;;;;;;17.48;9.70;;;-2.90;99.90;;;;;;5073058;28;20036;-59
2021/12/21 06:58:35;;;;;;;19.70;10.07;;;-2.90;99.90;;;;;;5073577;28;20047;-61
2021/12/21 07:01:02;;;;;;;20.05;10.43;;;-2.90;99.90;;;;;;5072868;28;20032;-59
2021/12/21 07:03:28;;;;;;;18.98;9.95;;;-2.90;99.90;;;;;;5073256;28;20068;-58
2021/12/21 07:05:54;;;;;;;21.35;9.90;;;-2.90;99.90;;;;;;5073108;28;20113;-59
2021/12/21 07:08:26;;;;;;;23.15;11.20;;;-2.90;99.90;;;;;;5073537;28;20033;-60
2021/12/21 07:11:07;;;;;;;23.08;11.43;;;-2.90;99.90;;;;;;5092031;28;20410;-65
2021/12/21 07:19:03;;;;;;;22.85;10.80;;;-2.90;99.90;;;;;;5084522;28;20071;-60
2021/12/21 07:21:29;;;;;;;22.55;10.45;;;-3.00;99.90;;;;;;5089665;28;20032;-61
2021/12/21 07:23:54;;;;;;;21.73;10.95;;;-3.00;99.90;;;;;;5055947;28;20056;-59
2021/12/21 07:26:20;;;;;;;21.10;11.57;;;-3.00;99.90;;;;;;5072376;28;20028;-61
2021/12/21 07:28:46;;;;;;;21.35;11.73;;;-3.10;99.90;;;;;;5059091;28;20372;-60
2021/12/21 07:31:12;;;;;;;23.75;12.07;;;-3.10;99.90;;;;;;5075114;28;20036;-60
2021/12/21 07:33:38;;;;;;;23.38;12.55;;;-3.10;99.90;;;;;;5073848;28;20484;-61
2021/12/21 07:36:04;;;;;;;26.40;13.15;;;-3.10;99.90;;;;;;5073790;28;20051;-60
2021/12/21 07:38:32;;;;;;;30.35;13.13;;;-3.10;99.90;;;;;;5090895;28;20040;-61
2021/12/21 07:40:58;;;;;;;29.85;12.80;;;-3.10;99.90;;;;;;5089031;28;20126;-60
2021/12/21 07:43:24;;;;;;;25.35;13.43;;;-3.10;99.90;;;;;;5082353;28;20617;-59
2021/12/21 07:45:51;;;;;;;27.38;12.77;;;-3.20;99.90;;;;;;5074587;28;20052;-61
2021/12/21 07:48:16;;;;;;;23.63;13.00;;;-3.20;99.90;;;;;;5075268;28;20115;-59
2021/12/21 07:50:43;;;;;;;27.50;13.38;;;-3.20;99.90;;;;;;5074956;28;20154;-60
2021/12/21 07:53:09;;;;;;;28.02;13.55;;;-3.20;99.90;;;;;;5074172;28;20112;-59
2021/12/21 07:55:34;;;;;;;24.65;13.43;;;-3.20;99.90;;;;;;5073587;28;20119;-59
2021/12/21 07:58:00;;;;;;;20.60;12.88;;;-3.10;99.90;;;;;;5076259;28;20040;-58
2021/12/21 08:00:26;;;;;;;22.00;13.65;;;-3.10;99.90;;;;;;5077885;28;20113;-61
2021/12/21 08:02:53;;;;;;;25.83;13.75;;;-3.00;99.90;;;;;;5077880;28;20768;-60
2021/12/21 08:05:19;;;;;;;26.85;14.18;;;-3.10;99.90;;;;;;5078677;28;20108;-61
2021/12/21 08:07:54;;;;;;;26.77;14.60;;;-3.10;99.90;;;;;;5079267;28;20449;-61
2021/12/21 08:10:28;;;;;;;26.90;14.15;;;-3.00;99.90;;;;;;5069966;28;20407;-59
2021/12/21 08:12:56;;;;;;;31.52;16.05;;;-3.00;99.90;;;;;;5072225;28;20116;-62
2021/12/21 08:15:24;;;;;;;27.45;14.35;;;-2.90;99.90;;;;;;5054761;28;20032;-60
2021/12/21 08:17:49;;;;;;;28.10;15.18;;;-2.90;99.90;;;;;;5055875;28;20040;-62
2021/12/21 08:20:15;;;;;;;27.05;14.95;;;-2.90;99.90;;;;;;5052656;28;20081;-61
2021/12/21 08:22:41;;;;;;;31.65;15.98;;;-2.90;99.90;;;;;;5052820;28;20040;-60
2021/12/21 08:25:08;;;;;;;26.38;14.93;;;-2.90;99.90;;;;;;5054323;28;20040;-60
2021/12/21 08:27:34;;;;;;;36.28;16.23;;;-2.90;99.90;;;;;;5052946;28;20372;-62
2021/12/21 08:29:59;;;;;;;32.60;16.48;;;-2.90;99.90;;;;;;5051389;28;20054;-60
2021/12/21 08:32:25;;;;;;;32.08;16.27;;;-2.90;99.90;;;;;;5055232;28;20038;-60
2021/12/21 08:34:51;;;;;;;32.60;17.85;;;-2.90;99.90;;;;;;5053474;28;20525;-61
2021/12/21 08:37:17;;;;;;;31.55;17.17;;;-2.70;99.90;;;;;;5076091;28;20216;-60
2021/12/21 08:39:42;;;;;;;31.65;17.45;;;-2.90;99.90;;;;;;5072385;28;20084;-63
2021/12/21 08:42:12;;;;;;;37.90;20.42;;;-2.80;99.90;;;;;;5075186;28;20092;-62
2021/12/21 08:44:44;;;;;;;39.33;22.48;;;-2.80;99.90;;;;;;5071553;28;20035;-62
2021/12/21 08:47:10;;;;;;;37.10;22.30;;;-2.80;99.90;;;;;;5075473;28;20304;-62
2021/12/21 08:49:36;;;;;;;38.72;22.27;;;-2.70;99.90;;;;;;5075204;28;20039;-59
2021/12/21 08:52:01;;;;;;;38.80;22.15;;;-2.60;99.90;;;;;;5071067;28;21843;-60
2021/12/21 08:54:27;;;;;;;37.35;21.17;;;-2.60;99.90;;;;;;5067483;28;20039;-62
2021/12/21 08:56:53;;;;;;;37.28;21.13;;;-2.50;99.90;;;;;;5065705;28;20086;-60
2021/12/21 08:59:19;;;;;;;37.38;20.35;;;-2.50;99.90;;;;;;5049366;28;20081;-61
2021/12/21 09:01:45;;;;;;;37.70;21.02;;;-2.40;99.90;;;;;;5066998;28;20038;-60
2021/12/21 09:04:16;;;;;;;42.97;21.00;;;-2.40;99.90;;;;;;5069448;28;20038;-60
2021/12/21 09:06:41;;;;;;;40.40;21.63;;;-2.40;99.90;;;;;;5072391;28;20046;-62
2021/12/21 09:09:07;;;;;;;42.63;22.58;;;-2.40;99.90;;;;;;5083547;28;20462;-61
2021/12/21 09:11:35;;;;;;;38.90;20.40;;;-2.40;99.90;;;;;;5070201;28;20038;-62
2021/12/21 09:14:04;;;;;;;44.67;23.40;;;-2.30;99.90;;;;;;5084233;28;20031;-60
2021/12/21 09:16:30;;;;;;;42.75;22.67;;;-2.30;99.90;;;;;;5079339;28;20062;-61
2021/12/21 09:18:55;;;;;;;44.67;24.88;;;-2.20;99.90;;;;;;5080478;28;20056;-61
2021/12/21 09:21:21;;;;;;;45.40;24.27;;;-2.20;99.90;;;;;;5080700;28;20335;-60
2021/12/21 09:23:47;;;;;;;43.53;24.48;;;-2.20;99.90;;;;;;5068333;28;20028;-62
2021/12/21 09:26:14;;;;;;;40.30;23.40;;;-2.20;99.90;;;;;;5082118;28;20047;-63
2021/12/21 09:28:41;;;;;;;47.20;25.75;;;-2.10;99.90;;;;;;5082292;28;20056;-60
2021/12/21 09:31:07;;;;;;;59.80;32.92;;;-2.10;99.90;;;;;;5080763;28;20048;-59
2021/12/21 09:33:32;;;;;;;69.78;37.80;;;-2.00;99.90;;;;;;5083145;28;20051;-61
2021/12/21 09:35:58;;;;;;;74.47;41.45;;;-1.90;99.90;;;;;;5081267;28;20067;-61
2021/12/21 09:38:24;;;;;;;72.35;41.40;;;-1.50;99.90;;;;;;5075095;28;20047;-59
2021/12/21 09:40:49;;;;;;;84.30;44.33;;;-1.60;99.90;;;;;;5081701;28;20380;-59
2021/12/21 09:43:15;;;;;;;81.63;44.97;;;-1.50;99.90;;;;;;5080245;28;20050;-61
2021/12/21 09:45:41;;;;;;;80.88;46.28;;;-1.40;99.90;;;;;;5074130;28;20222;-60
2021/12/21 09:48:07;;;;;;;86.75;44.53;;;-1.20;99.90;;;;;;5070208;28;20036;-62
2021/12/21 09:50:33;;;;;;;78.18;44.92;;;-1.10;99.90;;;;;;5069403;28;20475;-60
2021/12/21 09:52:59;;;;;;;70.70;42.75;;;-1.10;99.90;;;;;;5067796;28;20035;-61
2021/12/21 09:55:25;;;;;;;75.15;43.65;;;-1.00;99.90;;;;;;5063350;28;20035;-59
2021/12/21 09:57:52;;;;;;;70.53;42.17;;;-0.90;99.90;;;;;;5067195;28;20686;-61
2021/12/21 10:00:32;;;;;;;70.93;42.72;;;-0.90;99.90;;;;;;5050975;28;20052;-62
2021/12/21 10:03:03;;;;;;;76.95;42.53;;;-0.80;99.90;;;;;;5072973;28;20860;-61
2021/12/21 10:05:32;;;;;;;74.28;45.15;;;-0.80;99.90;;;;;;5050016;28;20071;-61
2021/12/21 10:08:02;;;;;;;74.03;43.63;;;-0.70;99.90;;;;;;5067983;28;20504;-59
2021/12/21 10:10:33;;;;;;;69.13;41.50;;;0.40;99.90;;;;;;5072029;28;20575;-61
2021/12/21 10:13:07;;;;;;;72.38;41.33;;;-0.50;99.90;;;;;;5073733;28;20073;-61
2021/12/21 10:15:38;;;;;;;;;;;-0.50;99.90;;;;;;5073580;28;20040;-61
2021/12/21 10:18:06;;;;;;;59.50;35.35;;;-0.40;99.90;;;;;;5075011;28;20254;-60
2021/12/21 10:20:53;;;;;;;60.50;37.42;;;-0.10;99.90;;;;;;5094059;28;20582;-62
2021/12/21 10:23:23;;;;;;;51.28;31.95;;;0.20;99.90;;;;;;5095948;28;20039;-57
2021/12/21 10:26:22;;;;;;;42.38;24.92;;;0.60;99.90;;;;;;5083977;28;20050;-62
2021/12/21 10:28:53;;;;;;;36.70;23.05;;;1.20;99.90;;;;;;5107574;28;20529;-62
2021/12/21 10:31:29;;;;;;;36.58;22.40;;;1.70;99.90;;;;;;5103028;28;20038;-63
2021/12/21 10:33:57;;;;;;;35.20;20.30;;;2.20;99.90;;;;;;5093081;28;20036;-63
2021/12/21 10:36:25;;;;;;;31.98;19.80;;;2.60;99.90;;;;;;5083604;28;20059;-62
2021/12/21 10:38:55;;;;;;;38.05;20.35;;;2.90;99.90;;;;;;5093272;28;20475;-60
2021/12/21 10:41:22;;;;;;;29.35;19.48;;;3.30;99.90;;;;;;5091418;28;20071;-61
2021/12/21 10:44:06;;;;;;;31.02;20.08;;;3.60;99.90;;;;;;5055484;28;20078;-60
2021/12/21 10:46:35;;;;;;;29.40;19.15;;;3.80;99.90;;;;;;5080689;28;20036;-60
2021/12/21 10:49:08;;;;;;;32.63;18.70;;;4.00;99.90;;;;;;5074425;28;20036;-63
2021/12/21 10:51:34;;;;;;;29.48;19.73;;;4.10;99.90;;;;;;5073919;28;20098;-59
2021/12/21 10:54:01;;;;;;;30.25;18.50;;;4.20;99.90;;;;;;5073862;28;20043;-58
2021/12/21 10:56:26;;;;;;;31.52;19.20;;;4.30;99.90;;;;;;5073809;28;20182;-60
2021/12/21 10:58:52;;;;;;;32.97;17.98;;;4.30;99.90;;;;;;5088434;28;20152;-61
2021/12/21 11:01:26;;;;;;;30.85;19.55;;;4.20;99.90;;;;;;5072798;28;20033;-61
2021/12/21 11:03:55;;;;;;;31.42;19.67;;;4.00;99.90;;;;;;5080663;28;20936;-61
2021/12/21 11:06:25;;;;;;;36.78;19.20;;;3.60;99.90;;;;;;5054706;28;20112;-58
2021/12/21 11:08:54;;;;;;;29.33;17.75;;;3.40;99.90;;;;;;5078325;28;20087;-59
2021/12/21 11:11:28;;;;;;;29.80;17.60;;;3.40;99.90;;;;;;5077723;28;20449;-58
2021/12/21 11:14:08;;;;;;;28.20;17.90;;;3.60;99.90;;;;;;5080059;28;20074;-59
2021/12/21 11:16:46;;;;;;;29.92;17.45;;;3.70;99.90;;;;;;5091945;28;20799;-58
2021/12/21 11:19:14;;;;;;;29.73;18.02;;;3.80;99.90;;;;;;5077475;28;20507;-58
2021/12/21 11:21:42;;;;;;;28.52;18.38;;;3.80;99.90;;;;;;5089036;28;20085;-59
2021/12/21 11:24:11;;;;;;;30.55;18.70;;;4.00;99.90;;;;;;5089967;28;20436;-60
2021/12/21 11:26:38;;;;;;;33.55;18.15;;;4.00;99.90;;;;;;5093150;28;20534;-60
2021/12/21 11:29:10;;;;;;;29.60;18.23;;;4.00;99.90;;;;;;5079699;28;20061;-60
2021/12/21 11:31:51;;;;;;;28.23;16.13;;;4.20;99.90;;;;;;5072340;28;20044;-60
2021/12/21 11:34:21;;;;;;;28.25;16.30;;;4.40;99.90;;;;;;5073871;28;20068;-59
2021/12/21 11:39:36;;;;;;;24.15;15.05;;;4.70;99.90;;;;;;5092065;28;20040;-60
2021/12/21 11:42:04;;;;;;;26.80;14.65;;;4.90;99.90;;;;;;5088571;28;20032;-61
2021/12/21 11:44:37;;;;;;;22.77;14.48;;;5.00;99.90;;;;;;5074711;28;20037;-62
2021/12/21 11:47:08;;;;;;;24.92;14.20;;;5.10;99.90;;;;;;5061081;28;20862;-59
2021/12/21 11:49:49;;;;;;;23.45;13.68;;;5.10;99.90;;;;;;5031397;28;20114;-59
2021/12/21 11:52:24;;;;;;;26.15;14.00;;;5.10;99.90;;;;;;5047475;28;20228;-59
2021/12/21 11:54:52;;;;;;;23.75;13.30;;;5.10;99.90;;;;;;5045431;28;20584;-61
2021/12/21 11:57:20;;;;;;;20.38;12.50;;;5.10;99.90;;;;;;5057566;28;20044;-59
2021/12/21 11:59:52;;;;;;;20.92;12.65;;;5.20;99.90;;;;;;5068441;28;20029;-59
2021/12/21 12:02:29;;;;;;;24.13;12.93;;;6.70;99.90;;;;;;5068332;28;20487;-60
2021/12/21 12:04:56;;;;;;;27.70;13.77;;;5.20;99.90;;;;;;5052255;28;20040;-60
2021/12/21 12:07:22;;;;;;;21.88;13.27;;;5.30;99.90;;;;;;5047763;28;20524;-59
2021/12/21 12:10:09;;;;;;;22.80;13.73;;;5.30;99.90;;;;;;5047976;28;20113;-60
2021/12/21 12:12:35;;;;;;;21.65;12.77;;;5.30;99.90;;;;;;5048717;28;20059;-62
2021/12/21 12:15:07;;;;;;;26.98;14.02;;;5.30;99.90;;;;;;5050183;28;20090;-59
2021/12/21 12:17:43;;;;;;;22.48;12.10;;;5.40;99.90;;;;;;5051765;28;20048;-58
2021/12/21 12:20:10;;;;;;;21.92;11.20;;;5.50;99.90;;;;;;5050541;28;20057;-60
2021/12/21 12:22:38;;;;;;;19.48;11.00;;;5.40;99.90;;;;;;5049992;28;20078;-58
2021/12/21 12:25:07;;;;;;;19.25;11.40;;;5.40;99.90;;;;;;5053877;28;20483;-57
2021/12/21 12:27:43;;;;;;;19.77;11.50;;;5.30;99.90;;;;;;5055212;28;20043;-60
2021/12/21 12:30:14;;;;;;;20.05;11.90;;;5.40;99.90;;;;;;5050503;28;20046;-60
2021/12/21 12:33:00;;;;;;;22.27;12.38;;;5.40;99.90;;;;;;5054828;28;20048;-60
2021/12/21 12:35:32;;;;;;;20.88;11.93;;;5.40;99.90;;;;;;5059455;28;20430;-60
2021/12/21 12:38:06;;;;;;;21.38;10.63;;;5.40;99.90;;;;;;5076077;28;22104;-58
2021/12/21 12:40:39;;;;;;;16.30;9.68;;;5.50;99.90;;;;;;5073090;28;21855;-61
2021/12/21 12:43:09;;;;;;;18.58;9.02;;;5.60;99.90;;;;;;5055376;28;20625;-59
2021/12/21 12:45:45;;;;;;;15.68;8.38;;;5.70;99.90;;;;;;5074109;28;20077;-59
2021/12/21 12:48:30;;;;;;;15.30;8.80;;;5.80;99.90;;;;;;5074265;28;20482;-58
2021/12/21 12:50:57;;;;;;;;;;;5.80;99.90;;;;;;5076224;28;21838;-61
2021/12/21 12:53:37;;;;;;;14.85;9.05;;;5.90;99.90;;;;;;5074118;28;19919;-59
2021/12/21 12:56:03;;;;;;;16.08;9.07;;;6.00;99.90;;;;;;5074471;28;20043;-59
2021/12/21 12:58:30;;;;;;;19.08;8.68;;;6.00;99.90;;;;;;5072246;28;20096;-58
2021/12/21 13:01:02;;;;;;;15.05;8.20;;;6.10;99.90;;;;;;5072370;28;20159;-59
2021/12/21 13:03:43;;;;;;;19.20;7.97;;;6.20;99.90;;;;;;5071929;28;20039;-59
2021/12/21 13:06:14;;;;;;;14.88;8.50;;;6.30;99.90;;;;;;5079962;28;20427;-60
2021/12/21 13:08:42;;;;;;;18.63;8.80;;;6.40;99.90;;;;;;5089223;28;20032;-59
2021/12/21 13:11:09;;;;;;;20.80;8.38;;;6.40;99.90;;;;;;5088633;28;20118;-57
2021/12/21 13:13:43;;;;;;;18.02;8.15;;;6.40;99.90;;;;;;5087740;28;20470;-60
2021/12/21 13:16:13;;;;;;;;;;;6.30;99.90;;;;;;5086397;28;20036;-57
2021/12/21 13:18:47;;;;;;;16.42;8.38;;;6.00;99.90;;;;;;5082684;28;19915;-58
2021/12/21 13:21:40;;;;;;;18.50;8.75;;;5.80;99.90;;;;;;5088347;28;20450;-58
2021/12/21 13:24:10;;;;;;;16.90;9.07;;;5.70;99.90;;;;;;5082296;28;20054;-58
2021/12/21 13:26:51;;;;;;;18.35;9.10;;;5.60;99.90;;;;;;5089075;28;20042;-57
2021/12/21 13:29:19;;;;;;;20.00;9.35;;;5.50;99.90;;;;;;5087067;28;20493;-57
2021/12/21 13:31:47;;;;;;;22.08;9.70;;;5.40;99.90;;;;;;5085974;28;20539;-57
2021/12/21 13:34:14;;;;;;;17.48;8.95;;;5.50;99.90;;;;;;5090096;28;20485;-57
2021/12/21 13:36:46;;;;;;;19.40;8.98;;;5.20;99.90;;;;;;5080689;28;20059;-57
2021/12/21 13:39:19;;;;;;;20.40;9.50;;;5.20;99.90;;;;;;5079991;28;20028;-58